Terminal Aerodrome Forecast
Issued by NWS

Home | Current Version | Previous Version | Text Only | Print | Product List | Glossary On
Versions: 1 2 3 4 5 6 7 8 9 10 11 12 13 14
429
FTUS44 KTSA 242320
TAFBVO
TAF
KBVO 242320Z 2500/2524 16007KT P6SM SCT040 SCT100
      TEMPO 2506/2510 6SM -TSRA BKN040CB
     FM251000 VRB03KT 6SM -SHRA BKN050
      TEMPO 2515/2518 VRB15G25KT 6SM -TSRA BKN025CB=

USA.gov is the U.S. government's official web portal to all federal, state and local government web resources and services.